Time;durP1;ratioP1;P1;durP2;ratioP2;P2;SDS_P1;SDS_P2;PMS_P1;PMS_P2;Temp;Humidity;BMP_temperature;BMP_pressure;BME280_temperature;BME280_humidity;BME280_pressure;Samples;Min_cycle;Max_cycle;Signal;HPM_P1;HPM_P2
2023/12/29 00:01:57;;;;;;;870.10;763.07;;;9.40;99.90;;;;;;5039638;28;20370;-75
2023/12/29 00:04:22;;;;;;;723.53;658.80;;;9.40;99.90;;;;;;5023881;28;20371;-75
2023/12/29 00:06:48;;;;;;;704.23;642.43;;;9.40;99.90;;;;;;5037949;28;20280;-75
2023/12/29 00:09:19;;;;;;;920.13;808.80;;;9.40;99.90;;;;;;5022105;28;20033;-75
2023/12/29 00:11:47;;;;;;;804.57;724.03;;;9.40;99.90;;;;;;5028713;28;20056;-75
2023/12/29 00:14:13;;;;;;;789.77;713.57;;;9.40;99.90;;;;;;5041107;28;20288;-75
2023/12/29 00:16:39;;;;;;;899.43;801.77;;;9.40;99.90;;;;;;5047984;28;20275;-75
2023/12/29 00:19:04;;;;;;;865.27;775.53;;;9.40;99.90;;;;;;5047356;28;20051;-75
2023/12/29 00:21:30;;;;;;;696.17;633.03;;;9.30;99.90;;;;;;5022646;28;20037;-76
2023/12/29 00:23:56;;;;;;;814.73;728.77;;;9.30;99.90;;;;;;5041245;28;20037;-75
2023/12/29 00:26:22;;;;;;;918.03;749.70;;;9.30;99.90;;;;;;5015397;28;20114;-76
2023/12/29 00:28:48;;;;;;;901.07;804.17;;;9.30;99.90;;;;;;5041896;28;20363;-76
2023/12/29 00:31:17;;;;;;;878.20;782.10;;;9.30;99.90;;;;;;5047769;28;20036;-76
2023/12/29 00:33:43;;;;;;;842.73;756.43;;;9.40;99.90;;;;;;5048207;28;20529;-76
2023/12/29 00:36:18;;;;;;;826.90;745.13;;;9.40;99.90;;;;;;5044139;28;20275;-76
2023/12/29 00:38:44;;;;;;;817.60;726.33;;;9.40;99.90;;;;;;5043056;28;20295;-74
2023/12/29 00:41:10;;;;;;;864.47;764.27;;;9.40;99.90;;;;;;5028724;28;20421;-74
2023/12/29 00:43:35;;;;;;;932.00;824.77;;;9.40;99.90;;;;;;5041972;28;20036;-75
2023/12/29 00:46:03;;;;;;;769.50;696.40;;;9.30;99.90;;;;;;5028520;28;20086;-75
2023/12/29 00:48:29;;;;;;;790.13;714.77;;;9.30;99.90;;;;;;5025184;28;20037;-74
2023/12/29 00:50:55;;;;;;;845.73;759.47;;;9.30;99.90;;;;;;5032813;28;20314;-74
2023/12/29 00:53:21;;;;;;;706.43;645.10;;;9.20;99.90;;;;;;5049239;28;20291;-75
2023/12/29 00:55:46;;;;;;;868.70;766.40;;;9.20;99.90;;;;;;5031095;28;20041;-75
2023/12/29 00:58:12;;;;;;;737.23;664.23;;;9.20;99.90;;;;;;5047205;28;20497;-75
2023/12/29 01:00:38;;;;;;;654.63;597.93;;;9.20;99.90;;;;;;5047511;28;20041;-75
2023/12/29 01:03:04;;;;;;;714.37;650.00;;;9.20;99.90;;;;;;5037649;28;20041;-75
2023/12/29 01:05:30;;;;;;;670.20;612.13;;;9.20;99.90;;;;;;5047319;28;20560;-75
2023/12/29 01:07:55;;;;;;;733.37;666.87;;;9.20;99.90;;;;;;5039867;28;20425;-75
2023/12/29 01:10:21;;;;;;;668.73;610.00;;;9.20;99.90;;;;;;5032632;28;20045;-75
2023/12/29 01:12:47;;;;;;;706.73;646.60;;;9.20;99.90;;;;;;5041740;28;20505;-75
2023/12/29 01:15:13;;;;;;;806.77;721.30;;;9.30;99.90;;;;;;5045357;28;20132;-75
2023/12/29 01:17:39;;;;;;;950.03;808.47;;;9.30;99.90;;;;;;5028947;28;20367;-75
2023/12/29 01:20:05;;;;;;;764.57;692.23;;;9.30;99.90;;;;;;5046143;28;20485;-76
2023/12/29 01:22:31;;;;;;;907.73;805.63;;;9.40;99.90;;;;;;5026591;28;20041;-75
2023/12/29 01:25:00;;;;;;;762.37;692.27;;;9.40;99.90;;;;;;5029769;28;20292;-75
2023/12/29 01:27:25;;;;;;;818.20;732.63;;;9.30;99.90;;;;;;5045336;28;20068;-76
2023/12/29 01:29:52;;;;;;;811.83;729.77;;;9.30;99.90;;;;;;5047332;28;20994;-77
2023/12/29 01:32:19;;;;;;;763.33;688.77;;;9.30;99.90;;;;;;5030113;28;20076;-76
2023/12/29 01:34:44;;;;;;;1106.97;812.87;;;9.30;99.90;;;;;;5047379;28;20787;-76
2023/12/29 01:37:10;;;;;;;1164.37;870.13;;;9.30;99.90;;;;;;5046552;28;20341;-76
2023/12/29 01:39:36;;;;;;;880.63;788.43;;;9.30;99.90;;;;;;5019465;28;20576;-76
2023/12/29 01:42:01;;;;;;;805.57;724.23;;;9.30;99.90;;;;;;5025942;28;20048;-74
2023/12/29 01:44:27;;;;;;;838.97;734.57;;;9.20;99.90;;;;;;5046550;28;20111;-76
2023/12/29 01:46:56;;;;;;;918.50;780.50;;;9.20;99.90;;;;;;5043594;28;20425;-75
2023/12/29 01:49:22;;;;;;;837.67;746.87;;;9.20;99.90;;;;;;5039863;28;20447;-77
2023/12/29 01:51:54;;;;;;;701.17;637.97;;;9.10;99.90;;;;;;5040617;28;20290;-76
2023/12/29 01:54:21;;;;;;;692.23;629.57;;;9.10;99.90;;;;;;5048156;28;20283;-75
2023/12/29 01:56:50;;;;;;;717.37;648.80;;;9.00;99.90;;;;;;5046631;28;20283;-77
2023/12/29 01:59:16;;;;;;;703.03;639.03;;;9.00;99.80;;;;;;5045854;28;20283;-76
2023/12/29 02:01:43;;;;;;;827.63;706.90;;;9.00;99.60;;;;;;5021136;28;20295;-75
2023/12/29 02:04:12;;;;;;;1216.40;814.47;;;9.00;99.10;;;;;;5023040;28;20287;-76
2023/12/29 02:06:39;;;;;;;1464.17;892.83;;;8.90;98.20;;;;;;5043833;28;20284;-77
2023/12/29 02:09:04;;;;;;;720.83;651.13;;;8.80;97.90;;;;;;5046586;28;20279;-77
2023/12/29 02:11:31;;;;;;;1001.60;736.90;;;8.80;99.60;;;;;;5047267;28;20292;-76
2023/12/29 02:13:58;;;;;;;702.80;637.47;;;8.70;99.50;;;;;;5044678;28;20048;-77
2023/12/29 02:16:36;;;;;;;771.90;692.08;;;8.70;99.90;;;;;;5030414;28;20291;-76
2023/12/29 02:19:25;;;;;;;743.67;669.13;;;8.70;99.90;;;;;;5028070;28;20600;-76
2023/12/29 02:21:51;;;;;;;729.30;655.80;;;8.70;99.90;;;;;;5046230;28;20434;-76
2023/12/29 02:24:16;;;;;;;776.03;701.77;;;8.80;99.90;;;;;;5047978;28;20284;-77
2023/12/29 02:26:47;;;;;;;727.83;653.97;;;8.80;99.90;;;;;;5047827;28;20531;-76
2023/12/29 02:29:18;;;;;;;807.10;702.50;;;8.90;99.90;;;;;;5033851;28;20100;-76
2023/12/29 02:31:48;;;;;;;688.37;624.73;;;8.90;99.90;;;;;;5054817;28;20731;-75
2023/12/29 02:34:16;;;;;;;796.60;717.40;;;8.80;99.90;;;;;;5029854;28;20374;-75
2023/12/29 02:36:43;;;;;;;858.23;760.40;;;8.90;99.90;;;;;;5032447;28;20076;-75
2023/12/29 02:39:10;;;;;;;978.17;823.80;;;8.90;99.90;;;;;;5031277;28;20314;-75
2023/12/29 02:41:38;;;;;;;844.63;753.17;;;8.90;99.90;;;;;;5032223;28;20314;-75
2023/12/29 02:44:04;;;;;;;805.93;725.27;;;8.90;99.90;;;;;;5043460;28;20326;-76
2023/12/29 02:46:30;;;;;;;1162.07;850.25;;;9.00;99.90;;;;;;5033031;28;20287;-76
2023/12/29 02:48:55;;;;;;;830.20;740.80;;;9.00;99.90;;;;;;5032591;28;20036;-76
2023/12/29 02:51:21;;;;;;;942.07;806.23;;;9.10;99.90;;;;;;5049781;28;20047;-76
2023/12/29 02:53:48;;;;;;;826.80;740.93;;;9.10;99.90;;;;;;5033997;28;20097;-75
2023/12/29 02:56:14;;;;;;;648.33;592.30;;;9.20;99.90;;;;;;5056822;28;20041;-76
2023/12/29 02:58:40;;;;;;;1137.20;850.60;;;9.30;99.90;;;;;;5037282;28;20749;-76
2023/12/29 03:01:06;;;;;;;858.93;764.20;;;9.30;99.90;;;;;;5030937;28;20037;-75
2023/12/29 03:03:32;;;;;;;886.37;793.00;;;9.30;99.90;;;;;;5046514;28;20424;-76
2023/12/29 03:05:57;;;;;;;712.23;647.63;;;9.30;99.90;;;;;;5049778;28;20303;-77
2023/12/29 03:08:23;;;;;;;940.60;757.37;;;9.30;99.90;;;;;;5046233;28;20288;-76
2023/12/29 03:10:49;;;;;;;951.77;717.17;;;9.30;99.90;;;;;;5046466;28;20124;-75
2023/12/29 03:13:14;;;;;;;647.33;586.77;;;9.30;99.90;;;;;;5037448;28;20409;-75
2023/12/29 03:15:40;;;;;;;684.47;620.60;;;9.30;99.90;;;;;;5032370;28;20140;-76
2023/12/29 03:18:06;;;;;;;787.77;703.77;;;9.20;99.90;;;;;;5031970;28;20158;-75
2023/12/29 03:20:32;;;;;;;1185.97;867.17;;;9.20;99.90;;;;;;5037516;28;20359;-76
2023/12/29 03:22:57;;;;;;;841.77;743.30;;;9.20;98.60;;;;;;5030598;28;20504;-75
2023/12/29 03:25:23;;;;;;;930.63;752.97;;;9.10;98.60;;;;;;5040019;28;20087;-75
2023/12/29 03:27:49;;;;;;;1086.03;825.33;;;9.00;97.90;;;;;;5051914;28;20053;-75
2023/12/29 03:30:14;;;;;;;971.93;771.70;;;9.00;98.00;;;;;;5032965;28;20397;-75
2023/12/29 03:32:40;;;;;;;911.90;811.03;;;8.90;98.80;;;;;;5029499;28;20090;-75
2023/12/29 03:35:06;;;;;;;772.57;694.40;;;8.90;99.00;;;;;;5049203;28;20051;-74
2023/12/29 03:37:32;;;;;;;1115.17;805.53;;;8.80;99.90;;;;;;5049682;28;20088;-76
2023/12/29 03:39:57;;;;;;;817.43;729.43;;;8.80;99.90;;;;;;5048917;28;20056;-75
2023/12/29 03:42:23;;;;;;;821.30;724.93;;;8.70;99.90;;;;;;5033069;28;20128;-76
2023/12/29 03:44:49;;;;;;;909.10;739.27;;;8.70;99.90;;;;;;5048696;28;20040;-75
2023/12/29 03:47:14;;;;;;;912.73;788.50;;;8.70;99.90;;;;;;5031815;28;20039;-76
2023/12/29 03:49:40;;;;;;;825.53;727.90;;;8.80;98.20;;;;;;5045404;28;20064;-75
2023/12/29 03:52:06;;;;;;;1117.13;806.43;;;8.80;98.00;;;;;;5047713;28;20037;-75
2023/12/29 03:54:31;;;;;;;752.87;680.77;;;8.80;97.60;;;;;;5046188;28;20126;-75
2023/12/29 03:56:57;;;;;;;642.07;584.43;;;8.80;97.80;;;;;;5036434;28;20545;-76
2023/12/29 03:59:23;;;;;;;1126.77;819.43;;;8.80;97.80;;;;;;5060718;28;20044;-75
2023/12/29 04:01:49;;;;;;;823.87;732.90;;;8.80;97.60;;;;;;5048996;28;20051;-75
2023/12/29 04:04:15;;;;;;;898.15;766.67;;;8.80;97.90;;;;;;5048529;28;20048;-75
2023/12/29 04:06:40;;;;;;;806.57;725.10;;;8.80;98.30;;;;;;5044702;28;20132;-75
2023/12/29 04:09:07;;;;;;;1090.13;848.37;;;8.70;97.90;;;;;;5048281;28;20489;-75
2023/12/29 04:11:32;;;;;;;669.05;604.65;;;8.80;97.30;;;;;;5032400;28;20040;-75
2023/12/29 04:13:58;;;;;;;727.03;659.93;;;8.80;97.00;;;;;;5047840;28;20106;-75
2023/12/29 04:16:24;;;;;;;680.27;613.27;;;8.80;97.60;;;;;;5042185;28;20564;-76
2023/12/29 04:18:49;;;;;;;1009.17;814.10;;;8.70;96.90;;;;;;5041653;28;20125;-75
2023/12/29 04:21:15;;;;;;;698.07;630.80;;;8.70;96.30;;;;;;5047580;28;20037;-75
2023/12/29 04:23:44;;;;;;;1128.50;777.57;;;8.70;95.60;;;;;;5048494;28;20127;-75
2023/12/29 04:26:10;;;;;;;860.77;744.00;;;8.70;94.90;;;;;;5047894;28;20045;-75
2023/12/29 04:28:35;;;;;;;755.40;678.47;;;8.70;94.60;;;;;;5049046;28;20341;-74
2023/12/29 04:31:01;;;;;;;754.80;683.13;;;8.70;94.60;;;;;;5031411;28;20333;-75
2023/12/29 04:33:27;;;;;;;1171.30;781.17;;;8.70;94.20;;;;;;5031809;28;20073;-75
2023/12/29 04:35:52;;;;;;;792.70;713.37;;;8.70;94.00;;;;;;5048689;28;20408;-77
2023/12/29 04:38:19;;;;;;;721.47;647.83;;;8.80;93.90;;;;;;5030742;28;20090;-76
2023/12/29 04:40:47;;;;;;;708.80;639.33;;;8.80;94.30;;;;;;5030255;28;20431;-76
2023/12/29 04:43:13;;;;;;;852.80;762.30;;;8.80;94.40;;;;;;5046973;28;20280;-75
2023/12/29 04:45:38;;;;;;;885.13;787.53;;;8.90;94.00;;;;;;5048480;28;20631;-75
2023/12/29 04:48:04;;;;;;;857.43;697.90;;;8.90;94.60;;;;;;5030392;28;20268;-75
2023/12/29 04:50:30;;;;;;;1166.33;850.53;;;8.80;94.90;;;;;;5047532;28;20095;-77
2023/12/29 04:52:56;;;;;;;728.00;656.70;;;8.80;95.20;;;;;;5026977;28;20047;-76
2023/12/29 04:55:21;;;;;;;657.40;600.50;;;8.90;94.00;;;;;;5045908;28;20463;-76
2023/12/29 04:57:47;;;;;;;1043.00;850.20;;;8.90;95.20;;;;;;5024508;28;20051;-75
2023/12/29 05:00:13;;;;;;;815.63;728.60;;;8.80;94.90;;;;;;5044473;28;20033;-75
2023/12/29 05:02:39;;;;;;;638.70;580.53;;;8.80;95.10;;;;;;5032622;28;20044;-75
2023/12/29 05:05:05;;;;;;;729.90;662.30;;;8.80;95.30;;;;;;5052219;28;20290;-75
2023/12/29 05:07:31;;;;;;;898.10;766.07;;;8.80;95.50;;;;;;5051777;28;20043;-76
2023/12/29 05:09:56;;;;;;;973.20;765.47;;;8.80;95.60;;;;;;5046830;28;20105;-76
2023/12/29 05:12:22;;;;;;;1153.93;843.07;;;8.80;95.60;;;;;;5047105;28;20033;-76
2023/12/29 05:14:48;;;;;;;1256.77;855.87;;;8.80;95.60;;;;;;5047677;28;20073;-75
2023/12/29 05:17:14;;;;;;;892.57;785.53;;;8.80;94.90;;;;;;5047456;28;20037;-76
2023/12/29 05:19:40;;;;;;;1173.80;877.20;;;8.80;95.10;;;;;;5030613;28;20093;-76
2023/12/29 05:22:06;;;;;;;961.97;770.27;;;8.80;95.50;;;;;;5045702;28;20367;-74
2023/12/29 05:24:31;;;;;;;817.97;732.30;;;8.80;95.40;;;;;;5027272;28;20047;-75
2023/12/29 05:26:57;;;;;;;852.00;759.40;;;8.80;95.80;;;;;;5031062;28;20059;-74
2023/12/29 05:29:23;;;;;;;628.87;572.97;;;8.80;95.90;;;;;;5031012;28;20140;-75
2023/12/29 05:31:49;;;;;;;694.10;628.03;;;8.80;96.20;;;;;;5043963;28;20389;-74
2023/12/29 05:34:14;;;;;;;785.43;707.03;;;8.70;96.70;;;;;;5051185;28;20549;-74
2023/12/29 05:36:42;;;;;;;684.30;625.33;;;8.80;97.10;;;;;;5052786;28;20072;-73
2023/12/29 05:39:07;;;;;;;906.50;773.50;;;8.80;97.70;;;;;;5028741;28;20134;-74
2023/12/29 05:41:33;;;;;;;1266.13;900.47;;;8.80;97.40;;;;;;5045892;28;20826;-75
2023/12/29 05:44:00;;;;;;;829.17;739.37;;;8.90;97.60;;;;;;5047006;28;20649;-75
2023/12/29 05:46:26;;;;;;;733.70;665.33;;;8.90;98.00;;;;;;5053791;28;20045;-74
2023/12/29 05:48:52;;;;;;;916.77;773.50;;;8.90;98.20;;;;;;5045816;28;20278;-74
2023/12/29 05:51:18;;;;;;;1043.40;799.87;;;8.90;98.50;;;;;;5030232;28;20045;-74
2023/12/29 05:53:43;;;;;;;1013.03;817.73;;;8.90;98.50;;;;;;5039886;28;20040;-74
2023/12/29 05:56:12;;;;;;;820.97;729.83;;;9.00;98.90;;;;;;5044238;28;20550;-75
2023/12/29 05:58:41;;;;;;;854.37;752.47;;;9.00;99.40;;;;;;5046924;28;20051;-75
2023/12/29 06:01:07;;;;;;;843.93;746.83;;;9.00;99.60;;;;;;5043574;28;20310;-75
2023/12/29 06:03:33;;;;;;;759.30;684.37;;;9.00;99.80;;;;;;5028062;28;20410;-74
2023/12/29 06:05:58;;;;;;;749.83;670.17;;;9.00;99.90;;;;;;5029899;28;20064;-75
2023/12/29 06:08:24;;;;;;;819.80;726.63;;;9.00;99.60;;;;;;5027337;28;20306;-75
2023/12/29 06:10:50;;;;;;;1114.00;776.33;;;9.10;99.20;;;;;;5048565;28;20055;-76
2023/12/29 06:13:16;;;;;;;785.00;703.13;;;9.10;99.90;;;;;;5049256;28;20106;-76
2023/12/29 06:15:41;;;;;;;741.60;665.40;;;9.00;99.90;;;;;;5033712;28;20123;-77
2023/12/29 06:18:07;;;;;;;821.47;737.30;;;9.00;99.90;;;;;;5049708;28;20311;-75
2023/12/29 06:20:33;;;;;;;758.33;680.57;;;9.00;99.90;;;;;;5050149;28;20029;-76
2023/12/29 06:22:59;;;;;;;787.50;709.53;;;9.00;99.90;;;;;;5049918;28;20286;-76
2023/12/29 06:25:25;;;;;;;662.83;605.40;;;8.90;99.90;;;;;;5050332;28;20479;-76
2023/12/29 06:27:51;;;;;;;805.47;719.47;;;8.90;99.90;;;;;;5030369;28;20064;-75
2023/12/29 06:30:16;;;;;;;886.80;750.23;;;8.90;99.90;;;;;;5049833;28;20037;-76
2023/12/29 06:32:42;;;;;;;959.90;806.57;;;8.80;99.90;;;;;;5050058;28;20102;-76
2023/12/29 06:35:09;;;;;;;910.20;809.13;;;8.90;99.90;;;;;;5048768;28;20045;-76
2023/12/29 06:37:40;;;;;;;951.37;787.17;;;8.90;99.90;;;;;;5047778;28;20076;-76
2023/12/29 06:40:09;;;;;;;823.63;736.97;;;8.90;99.90;;;;;;5030789;28;20311;-76
2023/12/29 06:42:35;;;;;;;803.07;719.00;;;8.90;99.70;;;;;;5033405;28;20546;-76
2023/12/29 06:45:01;;;;;;;1012.17;811.60;;;8.90;99.70;;;;;;5032125;28;20295;-76
2023/12/29 06:47:26;;;;;;;942.90;799.37;;;9.00;99.30;;;;;;5043354;28;20034;-76
2023/12/29 06:49:52;;;;;;;932.80;788.47;;;9.00;99.50;;;;;;5052368;28;20286;-76
2023/12/29 06:52:18;;;;;;;789.87;706.47;;;9.00;99.40;;;;;;5055285;28;20116;-75
2023/12/29 06:54:44;;;;;;;774.37;699.67;;;8.90;99.90;;;;;;5047132;28;20061;-76
2023/12/29 06:57:09;;;;;;;807.80;723.33;;;9.00;99.80;;;;;;5047090;28;20044;-76
2023/12/29 06:59:35;;;;;;;914.27;787.17;;;9.00;99.60;;;;;;5046323;28;20037;-76
2023/12/29 07:02:01;;;;;;;847.43;757.63;;;8.90;99.90;;;;;;5044274;28;20548;-76
2023/12/29 07:04:26;;;;;;;777.87;698.93;;;8.90;99.90;;;;;;5049364;28;20489;-76
2023/12/29 07:06:53;;;;;;;856.93;760.10;;;8.80;99.90;;;;;;5049797;28;20087;-76
2023/12/29 07:09:18;;;;;;;767.67;690.40;;;8.90;99.90;;;;;;5047103;28;20144;-76
2023/12/29 07:11:49;;;;;;;761.80;684.43;;;8.90;99.90;;;;;;5049628;28;20370;-76
2023/12/29 07:14:15;;;;;;;912.03;804.30;;;9.00;99.90;;;;;;5054953;28;20671;-74
2023/12/29 07:16:41;;;;;;;1385.70;930.30;;;9.00;99.90;;;;;;5038787;28;20048;-76
2023/12/29 07:19:07;;;;;;;810.77;714.57;;;9.00;99.80;;;;;;5034308;28;20051;-74
2023/12/29 07:21:32;;;;;;;885.60;749.47;;;9.00;99.50;;;;;;5047105;28;20033;-74
2023/12/29 07:23:58;;;;;;;863.10;769.17;;;9.00;99.60;;;;;;5031739;28;20421;-75
2023/12/29 07:26:24;;;;;;;760.07;682.27;;;9.00;99.20;;;;;;5048511;28;20044;-75
2023/12/29 07:28:53;;;;;;;964.47;802.77;;;9.00;99.40;;;;;;5032550;28;20049;-75
2023/12/29 07:31:20;;;;;;;829.07;741.70;;;9.00;99.50;;;;;;5032073;28;20569;-75
2023/12/29 07:33:46;;;;;;;1158.63;849.73;;;9.00;99.60;;;;;;5031024;28;20570;-75
2023/12/29 07:36:12;;;;;;;703.17;638.80;;;8.90;99.90;;;;;;5032171;28;20402;-74
2023/12/29 07:38:38;;;;;;;811.20;724.83;;;8.90;99.90;;;;;;5049089;28;20124;-74
2023/12/29 07:41:04;;;;;;;853.17;763.93;;;8.90;99.90;;;;;;5048955;28;20037;-75
2023/12/29 07:43:31;;;;;;;876.70;762.17;;;8.80;99.90;;;;;;5032196;28;20045;-75
2023/12/29 07:45:56;;;;;;;911.63;747.23;;;8.80;99.90;;;;;;5047137;28;20129;-75
2023/12/29 07:48:22;;;;;;;770.97;687.70;;;8.70;99.90;;;;;;5046677;28;20366;-76
2023/12/29 07:50:48;;;;;;;819.77;728.13;;;8.80;99.40;;;;;;5048858;28;20128;-75
2023/12/29 07:53:14;;;;;;;764.27;693.37;;;8.80;98.30;;;;;;5048617;28;20511;-75
2023/12/29 07:55:40;;;;;;;750.27;681.00;;;8.80;98.50;;;;;;5048214;28;20041;-75
2023/12/29 07:58:06;;;;;;;984.03;805.40;;;8.80;98.70;;;;;;5025412;28;20496;-75
2023/12/29 08:00:33;;;;;;;958.87;786.87;;;8.80;99.10;;;;;;5028502;28;20512;-76
2023/12/29 08:02:59;;;;;;;970.33;776.43;;;8.80;99.50;;;;;;5029955;28;20304;-75
2023/12/29 08:05:25;;;;;;;1087.05;806.88;;;8.70;99.00;;;;;;5031787;28;20287;-75
2023/12/29 08:07:50;;;;;;;901.40;769.83;;;8.70;98.80;;;;;;5030034;28;20087;-76
2023/12/29 08:10:16;;;;;;;876.03;772.90;;;8.80;98.60;;;;;;5031106;28;20669;-76
2023/12/29 08:12:42;;;;;;;739.77;663.30;;;8.70;99.60;;;;;;5030965;28;20049;-75
2023/12/29 08:15:08;;;;;;;827.53;742.57;;;8.70;99.90;;;;;;5030917;28;20029;-76
2023/12/29 08:17:34;;;;;;;869.42;705.05;;;8.70;99.90;;;;;;5034074;28;20045;-76
2023/12/29 08:19:59;;;;;;;812.33;730.10;;;8.70;99.90;;;;;;5051142;28;20047;-76
2023/12/29 08:22:28;;;;;;;859.83;767.40;;;8.70;99.90;;;;;;5029396;28;20045;-76
2023/12/29 08:24:54;;;;;;;691.15;628.78;;;8.80;99.70;;;;;;5030523;28;20079;-76
2023/12/29 08:27:25;;;;;;;924.27;787.30;;;8.80;99.90;;;;;;5030964;28;20424;-75
2023/12/29 08:29:51;;;;;;;767.10;691.40;;;8.70;99.30;;;;;;5040697;28;20067;-76
2023/12/29 08:32:17;;;;;;;874.03;711.63;;;8.70;99.40;;;;;;5025967;28;20322;-76
2023/12/29 08:34:43;;;;;;;754.67;679.83;;;8.70;99.70;;;;;;5039963;28;20068;-75
2023/12/29 08:37:08;;;;;;;789.43;670.77;;;8.60;99.90;;;;;;5042667;28;20055;-76
2023/12/29 08:39:34;;;;;;;880.50;763.17;;;8.60;99.80;;;;;;5044155;28;20512;-75
2023/12/29 08:42:00;;;;;;;809.57;723.07;;;8.60;99.60;;;;;;5046443;28;20069;-75
2023/12/29 08:44:25;;;;;;;768.90;691.33;;;8.50;99.90;;;;;;5046836;28;20037;-75
2023/12/29 08:46:51;;;;;;;780.27;703.13;;;8.50;99.90;;;;;;5045737;28;20111;-76
2023/12/29 08:49:17;;;;;;;776.80;696.73;;;8.50;99.90;;;;;;5038867;28;20573;-76
2023/12/29 08:51:43;;;;;;;803.10;719.97;;;8.60;99.90;;;;;;5033533;28;20041;-76
2023/12/29 08:54:09;;;;;;;758.70;667.37;;;8.60;99.90;;;;;;5045821;28;20045;-76
2023/12/29 08:56:34;;;;;;;713.50;644.47;;;8.60;99.90;;;;;;5029574;28;20041;-76
2023/12/29 08:59:00;;;;;;;731.37;663.70;;;8.60;99.90;;;;;;5028240;28;20349;-76
2023/12/29 09:01:26;;;;;;;979.73;829.53;;;8.60;99.90;;;;;;5025599;28;20079;-76
2023/12/29 09:03:52;;;;;;;749.63;677.47;;;8.70;99.90;;;;;;5029426;28;20133;-76
2023/12/29 09:06:17;;;;;;;989.07;822.63;;;8.70;99.90;;;;;;5029209;28;20214;-75
2023/12/29 09:08:43;;;;;;;808.53;725.63;;;8.80;99.90;;;;;;5046863;28;20032;-76
2023/12/29 09:11:09;;;;;;;828.57;744.37;;;8.80;99.90;;;;;;5042106;28;20111;-76
2023/12/29 09:13:34;;;;;;;848.03;755.70;;;8.80;99.90;;;;;;5026673;28;20048;-76
2023/12/29 09:16:00;;;;;;;761.97;684.97;;;8.80;99.90;;;;;;5040973;28;20384;-75
2023/12/29 09:18:26;;;;;;;769.73;665.17;;;8.90;99.90;;;;;;5044760;28;20049;-75
2023/12/29 09:20:51;;;;;;;848.43;755.73;;;8.90;99.90;;;;;;5044843;28;20078;-76
2023/12/29 09:23:17;;;;;;;653.03;590.73;;;9.00;99.90;;;;;;5017702;28;20081;-76
2023/12/29 09:25:43;;;;;;;707.70;642.70;;;9.10;99.90;;;;;;5038190;28;20060;-75
2023/12/29 09:28:09;;;;;;;835.37;740.93;;;9.10;99.90;;;;;;5042956;28;20053;-76
2023/12/29 09:30:35;;;;;;;747.53;673.70;;;9.10;99.60;;;;;;5024201;28;20358;-76
2023/12/29 09:33:00;;;;;;;812.53;724.50;;;9.10;99.60;;;;;;5026765;28;20329;-76
2023/12/29 09:35:26;;;;;;;881.87;748.73;;;9.10;99.90;;;;;;5034501;28;20493;-76
2023/12/29 09:37:52;;;;;;;1046.37;836.27;;;9.20;99.30;;;;;;5040831;28;20040;-75
2023/12/29 09:40:18;;;;;;;786.83;701.73;;;9.20;98.50;;;;;;5030363;28;20075;-75
2023/12/29 09:42:44;;;;;;;813.40;727.57;;;9.20;99.20;;;;;;5011838;28;20084;-76
2023/12/29 09:45:11;;;;;;;983.00;789.43;;;9.20;98.70;;;;;;5030209;28;20481;-75
2023/12/29 09:47:40;;;;;;;771.07;694.20;;;9.20;98.10;;;;;;5038083;28;20719;-75
2023/12/29 09:50:09;;;;;;;946.20;777.90;;;9.20;98.30;;;;;;5040341;28;20283;-76
2023/12/29 09:52:37;;;;;;;741.07;666.77;;;9.20;98.40;;;;;;5015209;28;20341;-75
2023/12/29 09:55:04;;;;;;;1047.30;808.93;;;9.20;98.30;;;;;;5031962;28;20431;-75
2023/12/29 09:57:30;;;;;;;682.43;621.43;;;9.20;96.60;;;;;;5042857;28;20371;-75
2023/12/29 09:59:57;;;;;;;612.00;560.73;;;9.20;95.90;;;;;;5044607;28;20769;-75
2023/12/29 10:02:23;;;;;;;777.77;691.97;;;9.20;95.70;;;;;;5024203;28;20300;-75
2023/12/29 10:04:49;;;;;;;756.27;683.77;;;9.10;95.40;;;;;;5044450;28;20288;-76
2023/12/29 10:07:28;;;;;;;714.00;644.17;;;9.10;95.50;;;;;;5027354;28;20687;-75
2023/12/29 10:09:58;;;;;;;627.43;576.43;;;9.00;95.50;;;;;;5027273;28;20041;-75
2023/12/29 10:12:25;;;;;;;647.90;591.83;;;8.90;95.40;;;;;;5029283;28;20297;-76
2023/12/29 10:15:14;;;;;;;914.30;735.47;;;8.90;96.20;;;;;;5042291;28;20326;-76
2023/12/29 10:17:58;;;;;;;763.03;684.93;;;8.80;96.30;;;;;;5024918;28;20433;-76
2023/12/29 10:20:49;;;;;;;632.30;580.20;;;8.70;96.20;;;;;;5038222;28;20299;-74
2023/12/29 10:23:31;;;;;;;753.13;684.77;;;8.70;94.00;;;;;;5021909;28;20719;-75
2023/12/29 10:25:57;;;;;;;642.05;585.88;;;8.60;90.90;;;;;;5059380;28;20393;-75
2023/12/29 10:28:23;;;;;;;698.07;634.43;;;8.60;90.20;;;;;;5042675;28;20088;-76
2023/12/29 10:30:49;;;;;;;668.40;609.37;;;8.50;89.60;;;;;;5039748;28;20391;-75
2023/12/29 10:33:21;;;;;;;774.70;699.78;;;8.40;90.50;;;;;;5041783;28;20499;-75
2023/12/29 10:36:08;;;;;;;610.93;560.80;;;8.40;89.40;;;;;;5039203;28;20430;-75
2023/12/29 10:38:34;;;;;;;651.97;594.47;;;8.30;90.70;;;;;;5040017;28;20334;-75
2023/12/29 10:41:19;;;;;;;601.83;551.47;;;8.30;91.30;;;;;;5023847;28;20140;-74
2023/12/29 10:43:52;;;;;;;611.25;559.85;;;8.20;95.70;;;;;;5045621;28;20053;-75
2023/12/29 10:46:18;;;;;;;678.47;620.27;;;8.10;97.00;;;;;;5026705;28;20632;-77
2023/12/29 10:48:44;;;;;;;671.20;613.28;;;8.00;97.80;;;;;;5033661;28;20326;-75
2023/12/29 10:51:10;;;;;;;664.80;605.43;;;8.00;97.10;;;;;;5042796;28;20076;-75
2023/12/29 10:53:36;;;;;;;689.70;626.47;;;8.00;97.20;;;;;;5028450;28;20040;-74
2023/12/29 10:56:02;;;;;;;565.60;519.58;;;8.00;98.10;;;;;;5040224;28;20106;-74
2023/12/29 10:58:29;;;;;;;702.88;638.33;;;8.00;99.10;;;;;;5041647;28;20041;-75
2023/12/29 11:00:59;;;;;;;581.92;532.78;;;8.00;99.90;;;;;;5022863;28;20068;-75
2023/12/29 11:03:25;;;;;;;752.42;675.22;;;8.00;99.90;;;;;;5048037;28;20064;-75
2023/12/29 11:06:00;;;;;;;748.43;673.43;;;8.10;99.90;;;;;;5039775;28;20033;-75
2023/12/29 11:08:26;;;;;;;956.85;789.83;;;8.30;99.80;;;;;;5041425;28;20037;-74
2023/12/29 11:10:53;;;;;;;896.47;773.15;;;8.40;96.00;;;;;;5039386;28;20099;-75
2023/12/29 11:13:19;;;;;;;735.50;663.42;;;8.40;95.30;;;;;;5037453;28;20072;-75
2023/12/29 11:15:46;;;;;;;667.55;609.53;;;8.50;94.40;;;;;;5043230;28;20052;-75
2023/12/29 11:18:16;;;;;;;1136.50;799.20;;;8.50;93.60;;;;;;5043080;28;20060;-74
2023/12/29 11:20:43;;;;;;;694.17;630.20;;;8.40;94.30;;;;;;5052054;28;20047;-74
2023/12/29 11:23:15;;;;;;;750.22;678.15;;;8.50;93.70;;;;;;5052208;28;20045;-74
2023/12/29 11:25:44;;;;;;;793.53;704.28;;;8.50;92.80;;;;;;5044502;28;20075;-74
2023/12/29 11:28:14;;;;;;;638.78;583.38;;;8.40;92.70;;;;;;5045511;28;20536;-76
2023/12/29 11:30:40;;;;;;;814.05;727.95;;;8.40;92.90;;;;;;5032146;28;20033;-74
2023/12/29 11:33:18;;;;;;;704.87;639.10;;;8.40;92.10;;;;;;5037718;28;20205;-75
2023/12/29 11:36:04;;;;;;;711.55;647.45;;;8.40;92.60;;;;;;5051859;28;20045;-74
2023/12/29 11:38:54;;;;;;;701.38;638.65;;;8.30;91.70;;;;;;5054672;28;20048;-74
2023/12/29 11:41:32;;;;;;;609.55;559.45;;;8.30;92.20;;;;;;5057288;28;20486;-74
2023/12/29 11:43:59;;;;;;;741.67;671.53;;;8.30;92.00;;;;;;5053780;28;20068;-74
2023/12/29 11:46:35;;;;;;;745.33;673.33;;;8.40;92.10;;;;;;5047410;28;20110;-75
2023/12/29 11:49:04;;;;;;;610.63;558.40;;;8.40;89.10;;;;;;5047759;28;20037;-74
2023/12/29 11:51:33;;;;;;;528.55;485.90;;;8.40;89.20;;;;;;5048971;28;20052;-74
2023/12/29 11:53:59;;;;;;;1147.22;798.42;;;8.30;89.90;;;;;;5033156;28;20773;-75
2023/12/29 11:56:38;;;;;;;673.35;613.03;;;8.30;89.20;;;;;;5034349;28;20044;-76
2023/12/29 11:59:18;;;;;;;536.38;493.63;;;8.20;90.40;;;;;;5032353;28;20147;-75
2023/12/29 12:01:44;;;;;;;636.75;580.35;;;8.20;91.30;;;;;;5047632;28;20029;-75
2023/12/29 12:04:41;;;;;;;704.85;631.80;;;8.20;90.40;;;;;;5042418;28;20051;-75
2023/12/29 12:07:13;;;;;;;903.65;786.83;;;8.10;89.80;;;;;;5042407;28;20386;-75
2023/12/29 12:09:38;;;;;;;726.85;639.17;;;8.00;89.20;;;;;;5050080;28;20040;-75
2023/12/29 12:12:05;;;;;;;627.17;570.13;;;8.00;89.20;;;;;;5049535;28;20068;-74
2023/12/29 12:14:49;;;;;;;480.40;441.63;;;7.90;90.50;;;;;;5030537;28;20124;-75
2023/12/29 12:17:32;;;;;;;552.33;507.98;;;7.90;88.60;;;;;;5039273;28;20068;-75